Time;durP1;ratioP1;P1;durP2;ratioP2;P2;SDS_P1;SDS_P2;PMS_P1;PMS_P2;Temp;Humidity;BMP_temperature;BMP_pressure;BME280_temperature;BME280_humidity;BME280_pressure;Samples;Min_cycle;Max_cycle;Signal;HPM_P1;HPM_P2
2022/11/19 00:01:08;;;;;;;4.25;3.10;;;8.90;99.90;;;;;;5066532;28;20047;-76
2022/11/19 00:03:35;;;;;;;5.32;3.10;;;8.90;99.90;;;;;;5076093;28;20021;-76
2022/11/19 00:06:09;;;;;;;3.00;2.70;;;8.90;99.90;;;;;;5073662;28;20017;-75
2022/11/19 00:08:36;;;;;;;3.22;2.92;;;8.90;99.90;;;;;;5077157;28;20039;-75
2022/11/19 00:11:04;;;;;;;4.53;3.17;;;8.90;99.90;;;;;;5066951;28;20578;-75
2022/11/19 00:13:29;;;;;;;5.10;2.88;;;8.90;99.90;;;;;;5079471;28;20157;-75
2022/11/19 00:15:59;;;;;;;3.33;2.92;;;8.90;99.90;;;;;;5078821;28;20031;-76
2022/11/19 00:18:24;;;;;;;3.97;2.75;;;8.90;99.90;;;;;;5079653;28;20047;-75
2022/11/19 00:20:50;;;;;;;4.03;2.97;;;8.90;99.90;;;;;;5062250;28;20025;-76
2022/11/19 00:23:16;;;;;;;3.22;2.88;;;8.90;99.90;;;;;;5077987;28;20085;-75
2022/11/19 00:25:42;;;;;;;3.45;2.70;;;8.90;99.90;;;;;;5068453;28;20136;-77
2022/11/19 00:28:08;;;;;;;4.43;2.80;;;8.90;99.90;;;;;;5078451;28;20515;-76
2022/11/19 00:30:33;;;;;;;2.80;2.40;;;8.90;99.90;;;;;;5063425;28;20493;-76
2022/11/19 00:32:59;;;;;;;3.15;2.70;;;8.90;99.90;;;;;;5073016;28;20032;-75
2022/11/19 00:35:25;;;;;;;2.78;2.58;;;8.80;99.90;;;;;;5076577;28;20023;-74
2022/11/19 00:37:51;;;;;;;3.15;2.50;;;8.80;99.90;;;;;;5077650;28;20401;-76
2022/11/19 00:40:16;;;;;;;3.35;2.63;;;8.80;99.90;;;;;;5079073;28;20029;-74
2022/11/19 00:43:45;;;;;;;3.20;2.67;;;8.70;99.90;;;;;;5076939;28;20055;-75
2022/11/19 00:45:28;;;;;;;2.65;2.45;;;8.70;99.90;;;;;;5066913;28;20036;-75
2022/11/19 00:47:54;;;;;;;5.82;2.60;;;8.60;99.90;;;;;;5075632;28;20033;-74
2022/11/19 00:50:19;;;;;;;3.95;2.55;;;8.60;99.90;;;;;;5075220;28;20059;-74
2022/11/19 00:52:45;;;;;;;3.60;2.60;;;8.50;99.90;;;;;;5078406;28;20390;-74
2022/11/19 00:55:11;;;;;;;2.35;2.15;;;8.50;99.90;;;;;;5073080;28;20020;-77
2022/11/19 00:57:37;;;;;;;4.03;2.50;;;8.40;99.90;;;;;;5076493;28;20028;-75
2022/11/19 01:00:03;;;;;;;4.45;2.63;;;8.40;99.90;;;;;;5070973;28;20025;-74
2022/11/19 01:02:29;;;;;;;3.42;2.83;;;8.40;99.90;;;;;;5074549;28;20031;-76
2022/11/19 01:04:55;;;;;;;3.17;2.88;;;8.40;99.90;;;;;;5068645;28;20029;-74
2022/11/19 01:07:20;;;;;;;2.60;2.40;;;8.40;99.90;;;;;;5073558;28;20028;-75
2022/11/19 01:09:46;;;;;;;2.65;2.42;;;8.40;99.90;;;;;;5075968;28;20036;-75
2022/11/19 01:12:12;;;;;;;3.25;2.65;;;8.50;99.90;;;;;;5077558;28;20020;-75
2022/11/19 01:14:38;;;;;;;3.55;2.40;;;8.50;99.90;;;;;;5077468;28;20078;-75
2022/11/19 01:17:04;;;;;;;2.50;2.30;;;8.50;99.90;;;;;;5075428;28;20020;-75
2022/11/19 01:19:30;;;;;;;3.40;2.40;;;8.50;99.90;;;;;;5078000;28;20043;-76
2022/11/19 01:21:55;;;;;;;3.22;2.50;;;8.50;99.90;;;;;;5072544;28;20043;-76
2022/11/19 01:24:21;;;;;;;2.75;2.45;;;8.50;99.90;;;;;;5076139;28;20454;-75
2022/11/19 01:26:47;;;;;;;2.67;2.40;;;8.50;99.90;;;;;;5069824;28;20429;-76
2022/11/19 01:29:13;;;;;;;3.88;2.78;;;8.50;99.90;;;;;;5068127;28;20036;-76
2022/11/19 01:31:39;;;;;;;2.72;2.33;;;8.50;99.90;;;;;;5075925;28;20028;-75
2022/11/19 01:34:05;;;;;;;5.32;2.83;;;8.50;99.90;;;;;;5078133;28;20025;-75
2022/11/19 01:36:30;;;;;;;4.57;2.70;;;8.50;99.90;;;;;;5065826;28;20055;-76
2022/11/19 01:38:57;;;;;;;5.47;2.50;;;8.50;99.90;;;;;;5076892;28;20099;-75
2022/11/19 01:41:25;;;;;;;7.40;2.92;;;8.50;99.90;;;;;;5076196;28;20047;-76
2022/11/19 01:43:57;;;;;;;5.43;2.42;;;8.50;99.90;;;;;;5076727;28;20111;-75
2022/11/19 01:46:31;;;;;;;4.45;2.30;;;8.60;99.90;;;;;;5077497;28;20103;-74
2022/11/19 01:49:11;;;;;;;2.55;2.22;;;8.60;99.90;;;;;;5076541;28;20025;-76
2022/11/19 01:51:44;;;;;;;3.80;2.30;;;8.60;99.90;;;;;;5077366;28;20027;-76
2022/11/19 01:54:38;;;;;;;4.15;2.95;;;8.60;99.90;;;;;;5076882;28;20381;-75
2022/11/19 01:57:08;;;;;;;2.67;2.47;;;8.60;99.90;;;;;;5075021;28;20025;-75
2022/11/19 01:59:35;;;;;;;;;;;8.60;99.90;;;;;;5068117;28;20029;-75
2022/11/19 02:02:01;;;;;;;3.28;2.40;;;8.60;99.90;;;;;;5072922;28;19908;-75
2022/11/19 02:04:27;;;;;;;3.42;2.53;;;8.60;99.90;;;;;;5071537;28;20035;-75
2022/11/19 02:06:53;;;;;;;2.67;2.30;;;8.60;99.90;;;;;;5068530;28;20063;-75
2022/11/19 02:09:20;;;;;;;2.53;2.33;;;8.60;99.90;;;;;;5071472;28;20025;-75
2022/11/19 02:12:04;;;;;;;2.60;2.10;;;8.60;99.90;;;;;;5068617;28;20024;-75
2022/11/19 02:15:03;;;;;;;3.20;2.20;;;8.60;99.90;;;;;;5066285;28;20436;-76
2022/11/19 02:17:38;;;;;;;2.63;2.42;;;8.60;99.90;;;;;;5060503;28;20037;-76
2022/11/19 02:20:37;;;;;;;2.20;2.00;;;8.60;99.90;;;;;;5076321;28;20399;-75
2022/11/19 02:23:12;;;;;;;2.63;2.30;;;8.60;99.90;;;;;;5075300;28;20032;-75
2022/11/19 02:26:09;;;;;;;5.72;2.35;;;8.70;99.90;;;;;;5072666;28;20049;-75
2022/11/19 02:29:12;;;;;;;2.55;2.30;;;8.60;99.90;;;;;;5075817;28;20114;-75
2022/11/19 02:31:46;;;;;;;4.50;2.40;;;8.60;99.90;;;;;;5067324;28;20024;-75
2022/11/19 02:34:25;;;;;;;2.40;2.20;;;8.60;99.90;;;;;;5076496;28;20016;-76
2022/11/19 02:37:08;;;;;;;2.70;2.50;;;8.60;99.90;;;;;;5064381;28;20021;-76
2022/11/19 02:39:42;;;;;;;2.70;2.50;;;8.60;99.90;;;;;;5070888;28;20440;-75
2022/11/19 02:42:08;;;;;;;2.60;2.40;;;8.60;99.90;;;;;;5063365;28;20409;-75
2022/11/19 02:45:01;;;;;;;2.40;2.20;;;8.60;99.90;;;;;;5075834;28;20031;-75
2022/11/19 02:47:35;;;;;;;2.50;2.30;;;8.60;99.90;;;;;;5070213;28;20029;-75
2022/11/19 02:50:33;;;;;;;2.88;2.60;;;8.60;99.90;;;;;;5073114;28;20048;-75
2022/11/19 02:53:02;;;;;;;4.47;2.53;;;8.60;99.90;;;;;;5075864;28;20037;-74
2022/11/19 02:55:28;;;;;;;3.03;2.70;;;8.60;99.90;;;;;;5070277;28;20389;-74
2022/11/19 02:57:57;;;;;;;2.60;2.35;;;8.50;99.90;;;;;;5075648;28;20024;-75
2022/11/19 03:06:16;;;;;;;3.08;2.30;;;8.50;99.90;;;;;;5060631;28;20032;-75
2022/11/19 03:08:43;;;;;;;3.28;2.50;;;8.40;99.90;;;;;;5089929;28;20170;-74
2022/11/19 03:11:20;;;;;;;4.15;3.20;;;8.40;99.90;;;;;;5062945;28;20038;-74
2022/11/19 03:16:42;;;;;;;2.47;2.28;;;8.30;99.90;;;;;;5075420;28;20162;-75
2022/11/19 03:19:29;;;;;;;2.60;2.30;;;8.30;99.90;;;;;;5075148;28;20025;-74
2022/11/19 03:22:36;;;;;;;2.60;2.40;;;8.30;99.90;;;;;;5070296;28;20028;-75
2022/11/19 03:25:11;;;;;;;3.75;2.67;;;8.30;99.90;;;;;;5072014;28;20040;-74
2022/11/19 03:27:46;;;;;;;2.67;2.40;;;8.30;99.90;;;;;;5074584;28;20075;-74
2022/11/19 03:30:14;;;;;;;2.80;2.55;;;8.30;99.90;;;;;;5066004;28;20028;-73
2022/11/19 03:32:44;;;;;;;2.30;2.10;;;8.20;99.90;;;;;;5071735;28;20485;-73
2022/11/19 03:35:16;;;;;;;2.65;2.20;;;8.20;99.90;;;;;;5071797;28;20021;-74
2022/11/19 03:37:45;;;;;;;6.28;2.40;;;8.20;99.90;;;;;;5071319;28;20029;-74
2022/11/19 03:40:14;;;;;;;2.45;2.13;;;8.20;99.90;;;;;;5075905;28;20439;-74
2022/11/19 03:42:42;;;;;;;2.63;2.10;;;8.10;99.90;;;;;;5076594;28;20029;-74
2022/11/19 03:45:12;;;;;;;3.25;2.10;;;8.10;99.90;;;;;;5077354;28;20028;-74
2022/11/19 03:47:41;;;;;;;2.83;2.30;;;8.00;99.90;;;;;;5078330;28;20032;-74
2022/11/19 03:50:24;;;;;;;2.50;2.30;;;8.10;99.90;;;;;;5074303;28;20017;-74
2022/11/19 03:52:50;;;;;;;2.60;2.40;;;8.00;99.90;;;;;;5070407;28;20021;-74
2022/11/19 03:55:16;;;;;;;2.65;2.45;;;8.00;99.90;;;;;;5060001;28;20028;-74
2022/11/19 03:57:42;;;;;;;2.78;2.58;;;8.00;99.90;;;;;;5068310;28;20033;-75
2022/11/19 04:00:08;;;;;;;2.45;2.25;;;8.00;99.90;;;;;;5062748;28;20021;-74
2022/11/19 04:02:35;;;;;;;2.50;2.30;;;7.90;99.90;;;;;;5076478;28;20031;-74
2022/11/19 04:05:00;;;;;;;2.40;2.20;;;7.90;99.90;;;;;;5069166;28;20379;-74
2022/11/19 04:07:26;;;;;;;2.60;2.33;;;7.90;99.90;;;;;;5074567;28;20032;-75
2022/11/19 04:09:52;;;;;;;3.80;2.35;;;7.90;99.90;;;;;;5069502;28;20025;-74
2022/11/19 04:12:23;;;;;;;2.80;2.30;;;7.90;99.90;;;;;;5074557;28;20111;-74
2022/11/19 04:14:50;;;;;;;3.38;2.40;;;7.90;99.90;;;;;;5078634;28;20031;-75
2022/11/19 04:17:17;;;;;;;2.50;2.30;;;7.90;99.90;;;;;;5070745;28;20028;-75
2022/11/19 04:19:43;;;;;;;2.85;2.55;;;7.90;99.90;;;;;;5078458;28;20034;-75
2022/11/19 04:22:09;;;;;;;4.28;2.42;;;7.90;99.90;;;;;;5075852;28;20526;-74
2022/11/19 04:24:34;;;;;;;2.65;2.45;;;8.00;99.90;;;;;;5066530;28;20053;-74
2022/11/19 04:27:00;;;;;;;3.08;2.65;;;8.00;99.90;;;;;;5072576;28;20528;-74
2022/11/19 04:29:26;;;;;;;2.80;2.53;;;8.00;99.90;;;;;;5078165;28;20507;-75
2022/11/19 04:31:52;;;;;;;2.40;2.20;;;8.00;99.90;;;;;;5075443;28;20021;-75
2022/11/19 04:34:18;;;;;;;5.00;2.30;;;8.00;99.90;;;;;;5078525;28;20038;-75
2022/11/19 04:36:45;;;;;;;2.40;2.20;;;8.00;99.90;;;;;;5067459;28;20025;-75
2022/11/19 04:39:11;;;;;;;2.50;2.30;;;8.00;99.90;;;;;;5078207;28;20032;-75
2022/11/19 04:41:38;;;;;;;2.47;2.20;;;8.00;99.90;;;;;;5078709;28;20107;-75
2022/11/19 04:44:04;;;;;;;6.22;2.30;;;8.00;99.90;;;;;;5077346;28;20034;-75
2022/11/19 04:46:30;;;;;;;2.60;2.30;;;8.00;99.90;;;;;;5077333;28;20032;-75
2022/11/19 04:48:56;;;;;;;2.55;2.35;;;8.10;99.90;;;;;;5075216;28;20029;-75
2022/11/19 04:51:22;;;;;;;2.47;2.15;;;8.00;99.90;;;;;;5072690;28;20032;-75
2022/11/19 04:53:48;;;;;;;3.40;2.30;;;8.10;99.90;;;;;;5078886;28;20029;-74
2022/11/19 04:56:14;;;;;;;4.03;2.20;;;8.00;99.90;;;;;;5069668;28;20024;-75
2022/11/19 04:58:40;;;;;;;3.22;2.50;;;8.00;99.90;;;;;;5079068;28;20054;-74
2022/11/19 05:01:06;;;;;;;3.58;2.40;;;8.00;99.90;;;;;;5066737;28;20074;-74
2022/11/19 05:03:32;;;;;;;2.55;2.35;;;8.00;99.90;;;;;;5076688;28;20465;-74
2022/11/19 05:05:58;;;;;;;2.92;2.38;;;8.00;99.90;;;;;;5063690;28;20170;-74
2022/11/19 05:08:23;;;;;;;7.55;2.72;;;7.90;99.90;;;;;;5077454;28;20029;-75
2022/11/19 05:10:49;;;;;;;6.05;2.50;;;7.90;99.90;;;;;;5076439;28;20143;-75
2022/11/19 05:13:15;;;;;;;4.53;2.40;;;7.90;99.90;;;;;;5075992;28;20032;-75
2022/11/19 05:15:41;;;;;;;3.50;2.40;;;7.90;99.90;;;;;;5077408;28;20063;-74
2022/11/19 05:18:07;;;;;;;4.13;2.30;;;7.90;99.90;;;;;;5077951;28;20033;-74
2022/11/19 05:20:33;;;;;;;3.33;2.40;;;7.90;99.90;;;;;;5072943;28;20043;-74
2022/11/19 05:22:59;;;;;;;2.60;2.40;;;7.90;99.90;;;;;;5065038;28;20504;-75
2022/11/19 05:25:25;;;;;;;2.92;2.63;;;7.90;99.90;;;;;;5067610;28;20425;-74
2022/11/19 05:27:51;;;;;;;4.50;2.70;;;7.90;99.90;;;;;;5077911;28;20028;-74
2022/11/19 05:30:17;;;;;;;4.30;2.60;;;7.90;99.90;;;;;;5062072;28;20104;-74
2022/11/19 05:32:42;;;;;;;3.25;2.35;;;7.90;99.90;;;;;;5067452;28;20092;-74
2022/11/19 05:35:09;;;;;;;5.07;2.80;;;7.90;99.90;;;;;;5076463;28;20059;-74
2022/11/19 05:37:34;;;;;;;6.60;2.55;;;7.80;99.90;;;;;;5077673;28;20103;-74
2022/11/19 05:40:00;;;;;;;4.57;3.10;;;7.80;99.90;;;;;;5078333;28;20051;-74
2022/11/19 05:42:26;;;;;;;3.88;2.72;;;7.80;99.90;;;;;;5074562;28;20075;-74
2022/11/19 05:44:52;;;;;;;2.67;2.47;;;7.80;99.90;;;;;;5077923;28;20104;-73
2022/11/19 05:47:17;;;;;;;3.65;2.65;;;7.70;99.90;;;;;;5076719;28;20086;-74
2022/11/19 05:49:43;;;;;;;3.50;2.53;;;7.80;99.90;;;;;;5072901;28;20498;-73
2022/11/19 05:52:10;;;;;;;3.20;2.90;;;7.70;99.90;;;;;;5075296;28;20028;-73
2022/11/19 05:54:36;;;;;;;3.45;2.42;;;7.70;99.90;;;;;;5065510;28;20024;-74
2022/11/19 05:57:04;;;;;;;2.60;2.40;;;7.70;99.90;;;;;;5065154;28;20485;-74
2022/11/19 05:59:30;;;;;;;3.35;2.85;;;7.70;99.90;;;;;;5064093;28;20021;-73
2022/11/19 06:01:56;;;;;;;6.18;2.60;;;7.70;99.90;;;;;;5070008;28;20028;-73
2022/11/19 06:04:22;;;;;;;2.92;2.60;;;7.70;99.90;;;;;;5070001;28;20028;-74
2022/11/19 06:06:48;;;;;;;5.40;2.60;;;7.70;99.90;;;;;;5067716;28;20032;-73
2022/11/19 06:09:14;;;;;;;4.45;2.90;;;7.70;99.90;;;;;;5072197;28;20100;-74
2022/11/19 06:11:49;;;;;;;5.22;2.92;;;7.70;99.90;;;;;;5069930;28;20025;-74
2022/11/19 06:14:17;;;;;;;4.07;2.72;;;7.70;99.90;;;;;;5076772;28;20070;-75
2022/11/19 06:16:43;;;;;;;5.82;2.80;;;7.70;99.90;;;;;;5069446;28;20074;-74
2022/11/19 06:19:09;;;;;;;3.38;2.92;;;7.70;99.90;;;;;;5075187;28;20103;-74
2022/11/19 06:21:35;;;;;;;2.92;2.70;;;7.80;99.90;;;;;;5074054;28;20025;-74
2022/11/19 06:24:00;;;;;;;2.85;2.60;;;7.70;99.90;;;;;;5077389;28;20041;-74
2022/11/19 06:26:28;;;;;;;2.80;2.50;;;7.70;99.90;;;;;;5068939;28;20024;-75
2022/11/19 06:28:54;;;;;;;2.85;2.65;;;7.70;99.90;;;;;;5070056;28;20363;-74
2022/11/19 06:31:21;;;;;;;3.97;2.60;;;7.70;99.90;;;;;;5062824;28;20111;-73
2022/11/19 06:33:47;;;;;;;2.60;2.40;;;7.70;99.90;;;;;;5069274;28;20032;-76
2022/11/19 06:36:13;;;;;;;3.30;2.80;;;7.70;99.90;;;;;;5068577;28;20039;-75
2022/11/19 06:38:39;;;;;;;3.67;3.15;;;7.70;99.90;;;;;;5076913;28;20510;-78
2022/11/19 06:41:06;;;;;;;4.15;3.03;;;7.70;99.90;;;;;;5074494;28;20036;-78
2022/11/19 06:43:31;;;;;;;5.00;2.65;;;7.70;99.90;;;;;;5076049;28;20059;-79
2022/11/19 06:45:57;;;;;;;8.07;3.05;;;7.60;99.90;;;;;;5057560;28;20029;-77
2022/11/19 06:48:23;;;;;;;4.45;2.72;;;7.70;99.90;;;;;;5076240;28;20032;-77
2022/11/19 06:50:49;;;;;;;7.35;2.90;;;7.70;99.90;;;;;;5076238;28;20099;-77
2022/11/19 06:53:15;;;;;;;4.05;2.90;;;7.70;99.90;;;;;;5073802;28;20020;-77
2022/11/19 06:55:40;;;;;;;2.80;2.60;;;7.70;99.90;;;;;;5075219;28;20024;-77
2022/11/19 06:58:07;;;;;;;2.83;2.63;;;7.70;99.90;;;;;;5074612;28;20048;-77
2022/11/19 07:00:34;;;;;;;3.60;2.80;;;7.70;99.90;;;;;;5076096;28;20036;-78
2022/11/19 07:03:00;;;;;;;2.90;2.60;;;7.70;99.90;;;;;;5064826;28;20025;-78
2022/11/19 07:05:26;;;;;;;3.63;2.60;;;7.70;99.90;;;;;;5078479;28;20051;-78
2022/11/19 07:07:52;;;;;;;7.00;2.40;;;7.70;99.90;;;;;;5072300;28;20032;-78
2022/11/19 07:10:18;;;;;;;2.85;2.42;;;7.80;99.90;;;;;;5063205;28;20477;-77
2022/11/19 07:12:44;;;;;;;3.38;2.63;;;7.70;99.90;;;;;;5075410;28;20025;-78
2022/11/19 07:15:09;;;;;;;3.00;2.80;;;7.80;99.90;;;;;;5074789;28;20549;-78
2022/11/19 07:17:36;;;;;;;9.57;5.22;;;7.80;99.90;;;;;;5068815;28;20024;-77
2022/11/19 07:20:04;;;;;;;3.13;2.60;;;7.80;99.90;;;;;;5071956;28;20490;-77
2022/11/19 07:22:30;;;;;;;9.05;3.58;;;7.80;99.90;;;;;;5074813;28;20032;-78
2022/11/19 07:24:56;;;;;;;4.45;3.50;;;7.80;99.90;;;;;;5072979;28;20044;-77
2022/11/19 07:27:22;;;;;;;4.07;2.70;;;7.80;99.90;;;;;;5065634;28;20382;-77
2022/11/19 07:29:48;;;;;;;4.32;2.50;;;7.80;99.90;;;;;;5074282;28;20082;-77
2022/11/19 07:32:13;;;;;;;2.72;2.53;;;7.80;99.90;;;;;;5067137;28;20635;-78
2022/11/19 07:34:39;;;;;;;4.25;2.80;;;7.80;99.90;;;;;;5071719;28;20021;-81
2022/11/19 07:37:05;;;;;;;3.10;2.80;;;7.80;99.90;;;;;;5060753;28;20052;-76
2022/11/19 07:39:31;;;;;;;4.88;2.92;;;7.80;99.90;;;;;;5072391;28;20116;-77
2022/11/19 07:44:41;;;;;;;3.67;3.03;;;7.80;99.90;;;;;;5072645;28;20031;-77
2022/11/19 07:47:08;;;;;;;3.75;3.38;;;7.80;99.90;;;;;;5074725;28;20029;-78
2022/11/19 07:49:34;;;;;;;3.58;3.28;;;7.80;99.90;;;;;;5076224;28;20095;-77
2022/11/19 07:52:00;;;;;;;6.95;2.70;;;7.80;99.90;;;;;;5073190;28;20094;-76
2022/11/19 07:54:26;;;;;;;8.15;3.88;;;7.80;99.90;;;;;;5075115;28;20021;-76
2022/11/19 07:56:51;;;;;;;6.78;3.33;;;7.80;99.90;;;;;;5071803;28;20027;-75
2022/11/19 07:59:17;;;;;;;5.75;3.42;;;7.80;99.90;;;;;;5063121;28;20027;-77
2022/11/19 08:01:44;;;;;;;3.47;3.17;;;7.70;99.90;;;;;;5065576;28;20025;-75
2022/11/19 08:04:10;;;;;;;4.93;3.40;;;7.70;99.90;;;;;;5064011;28;20031;-75
2022/11/19 08:06:36;;;;;;;6.18;3.85;;;7.70;99.90;;;;;;5062932;28;20025;-75
2022/11/19 08:09:03;;;;;;;3.38;3.08;;;7.70;99.90;;;;;;5071973;28;20459;-77
2022/11/19 08:11:29;;;;;;;3.30;2.95;;;7.70;99.90;;;;;;5071281;28;20056;-76
2022/11/19 08:13:57;;;;;;;3.78;3.15;;;7.70;99.90;;;;;;5070531;28;20017;-76
2022/11/19 08:19:11;;;;;;;3.58;3.15;;;7.80;99.90;;;;;;5072902;28;20095;-76
2022/11/19 08:21:45;;;;;;;6.22;3.63;;;7.80;99.90;;;;;;5066341;28;20034;-77
2022/11/19 08:24:12;;;;;;;3.28;2.70;;;7.80;99.90;;;;;;5065776;28;20124;-77
2022/11/19 08:26:39;;;;;;;4.68;2.83;;;7.80;99.90;;;;;;5068475;28;20511;-80
2022/11/19 08:29:06;;;;;;;3.38;3.08;;;7.80;99.90;;;;;;5071718;28;20110;-78
2022/11/19 08:31:32;;;;;;;3.40;2.70;;;7.90;99.90;;;;;;5067579;28;20031;-78
2022/11/19 08:33:59;;;;;;;3.72;3.42;;;7.90;99.90;;;;;;5078873;28;20096;-77
2022/11/19 08:36:25;;;;;;;3.92;3.13;;;7.90;99.90;;;;;;5067821;28;20095;-78
2022/11/19 08:38:51;;;;;;;4.28;2.70;;;7.90;99.90;;;;;;5074251;28;20017;-77
2022/11/19 08:44:02;;;;;;;4.10;3.28;;;7.90;99.90;;;;;;5076605;28;20047;-78
2022/11/19 08:46:28;;;;;;;3.28;2.97;;;8.00;99.90;;;;;;5077455;28;20028;-78
2022/11/19 08:48:54;;;;;;;7.43;3.20;;;8.00;99.90;;;;;;5077948;28;20020;-78
2022/11/19 08:51:20;;;;;;;12.57;3.88;;;8.10;99.90;;;;;;5078240;28;20567;-77
2022/11/19 08:53:45;;;;;;;3.95;2.83;;;8.10;99.90;;;;;;5073294;28;20013;-78
2022/11/19 08:56:11;;;;;;;3.60;3.30;;;8.20;99.90;;;;;;5071797;28;20017;-77
2022/11/19 08:58:37;;;;;;;3.38;3.08;;;8.30;99.90;;;;;;5074201;28;20032;-79
2022/11/19 09:01:10;;;;;;;8.20;3.25;;;8.40;99.90;;;;;;5065187;28;20029;-80
2022/11/19 09:03:36;;;;;;;5.35;4.00;;;8.50;99.90;;;;;;5077108;28;20513;-77
2022/11/19 09:06:03;;;;;;;3.20;2.90;;;8.50;99.90;;;;;;5063406;28;20028;-77
2022/11/19 09:08:29;;;;;;;5.55;2.83;;;8.50;99.90;;;;;;5078241;28;20028;-79
2022/11/19 09:10:55;;;;;;;3.10;2.50;;;8.50;99.90;;;;;;5065529;28;20016;-78
2022/11/19 09:13:22;;;;;;;5.22;2.42;;;8.50;99.90;;;;;;5077442;28;20070;-78
2022/11/19 09:15:48;;;;;;;4.18;2.63;;;8.60;99.90;;;;;;5076726;28;20016;-82
2022/11/19 09:18:14;;;;;;;3.30;3.00;;;8.60;99.90;;;;;;5078572;28;20032;-80
2022/11/19 09:20:40;;;;;;;2.90;2.60;;;8.50;99.90;;;;;;5073777;28;20042;-79
2022/11/19 09:23:06;;;;;;;2.88;2.67;;;8.60;99.90;;;;;;5078420;28;20095;-79
2022/11/19 09:25:32;;;;;;;4.30;2.75;;;8.70;99.90;;;;;;5072517;28;20061;-77
2022/11/19 09:27:58;;;;;;;2.90;2.70;;;8.80;99.90;;;;;;5072595;28;20404;-79
2022/11/19 09:30:25;;;;;;;2.63;2.42;;;8.90;99.90;;;;;;5072478;28;20021;-78
2022/11/19 09:32:51;;;;;;;3.45;2.42;;;8.90;99.90;;;;;;5069525;28;20029;-79
2022/11/19 09:35:17;;;;;;;3.65;2.50;;;9.00;99.90;;;;;;5057181;28;20025;-77
2022/11/19 09:37:43;;;;;;;2.90;2.50;;;9.00;99.90;;;;;;5071805;28;20032;-79
2022/11/19 09:40:16;;;;;;;2.85;2.40;;;8.90;99.90;;;;;;5078287;28;20029;-78
2022/11/19 09:42:56;;;;;;;3.53;2.72;;;8.80;99.90;;;;;;5073268;28;20555;-78
2022/11/19 09:45:42;;;;;;;4.13;2.60;;;8.70;99.90;;;;;;5067338;28;20029;-79
2022/11/19 09:48:21;;;;;;;2.95;2.67;;;8.60;99.90;;;;;;5063398;28;20059;-81
2022/11/19 09:51:07;;;;;;;3.28;2.88;;;8.60;99.90;;;;;;5077932;28;20016;-77
2022/11/19 09:53:39;;;;;;;4.60;3.08;;;8.50;99.90;;;;;;5071711;28;20081;-80
2022/11/19 09:56:05;;;;;;;3.83;3.03;;;8.50;99.90;;;;;;5069330;28;20020;-78
2022/11/19 09:58:44;;;;;;;3.17;2.97;;;8.50;99.90;;;;;;5069734;28;20025;-77
2022/11/19 10:01:16;;;;;;;4.32;2.85;;;8.50;99.90;;;;;;5065491;28;20064;-77
2022/11/19 10:03:49;;;;;;;3.70;3.20;;;8.50;99.90;;;;;;5076246;28;20028;-77
2022/11/19 10:06:47;;;;;;;4.20;3.15;;;8.60;99.90;;;;;;5073048;28;20028;-78
2022/11/19 10:09:19;;;;;;;3.80;3.25;;;8.60;99.90;;;;;;5056500;28;20056;-78
2022/11/19 10:11:57;;;;;;;5.00;3.53;;;8.60;99.90;;;;;;5071134;28;20027;-78
2022/11/19 10:14:26;;;;;;;3.90;3.35;;;8.70;99.90;;;;;;5077421;28;20032;-78
2022/11/19 10:17:15;;;;;;;5.22;3.75;;;8.80;99.90;;;;;;5076246;28;20115;-77
2022/11/19 10:20:01;;;;;;;3.88;3.35;;;8.80;99.90;;;;;;5071331;28;20020;-78
2022/11/19 10:22:30;;;;;;;6.88;6.13;;;8.90;99.90;;;;;;5076736;28;20066;-81
2022/11/19 10:25:03;;;;;;;6.65;5.18;;;8.90;99.90;;;;;;5071757;28;20546;-78
2022/11/19 10:27:36;;;;;;;3.22;2.90;;;8.90;99.90;;;;;;5073940;28;20017;-78
2022/11/19 10:30:11;;;;;;;3.72;2.83;;;9.00;99.90;;;;;;5070483;28;20466;-79
2022/11/19 10:32:47;;;;;;;4.72;3.47;;;9.10;99.90;;;;;;5064515;28;20544;-78
2022/11/19 10:35:22;;;;;;;3.50;3.20;;;9.20;99.90;;;;;;5075442;28;20059;-78
2022/11/19 10:37:57;;;;;;;3.05;2.70;;;9.20;99.90;;;;;;5076358;28;20016;-81
2022/11/19 10:40:27;;;;;;;3.88;3.47;;;9.30;99.90;;;;;;5074631;28;20043;-83
2022/11/19 10:43:25;;;;;;;3.27;2.50;;;9.30;99.90;;;;;;5073233;28;20066;-78
2022/11/19 10:45:51;;;;;;;5.10;3.85;;;9.30;99.90;;;;;;5062566;28;20056;-78
2022/11/19 10:48:22;;;;;;;4.40;3.25;;;9.20;99.90;;;;;;5071904;28;20036;-77
2022/11/19 10:50:49;;;;;;;2.90;2.60;;;9.10;99.90;;;;;;5075045;28;20020;-79
2022/11/19 10:53:35;;;;;;;3.80;3.20;;;9.20;99.90;;;;;;5067369;28;20072;-82
2022/11/19 10:56:10;;;;;;;3.17;2.88;;;9.20;99.90;;;;;;5072486;28;20039;-78
2022/11/19 10:58:47;;;;;;;6.10;4.30;;;9.30;99.90;;;;;;5081866;28;20064;-78
2022/11/19 11:01:35;;;;;;;3.60;3.20;;;9.30;99.90;;;;;;5066308;28;20024;-79
2022/11/19 11:04:22;;;;;;;5.13;3.10;;;9.40;99.90;;;;;;5070847;28;20391;-80
2022/11/19 11:07:02;;;;;;;5.78;3.20;;;9.30;99.90;;;;;;5070070;28;20028;-78
2022/11/19 11:09:28;;;;;;;9.85;6.22;;;9.20;99.90;;;;;;5076191;28;20033;-77
2022/11/19 11:14:53;;;;;;;96.35;52.28;;;8.90;99.90;;;;;;5070324;28;20032;-76
2022/11/19 11:17:29;;;;;;;37.13;19.08;;;8.80;99.90;;;;;;5074965;28;20055;-75
2022/11/19 11:20:26;;;;;;;18.25;10.93;;;8.80;99.90;;;;;;5074504;28;20104;-77
2022/11/19 11:23:04;;;;;;;19.13;11.10;;;8.70;99.90;;;;;;5064868;28;20453;-76
2022/11/19 11:25:30;;;;;;;7.15;4.32;;;8.60;99.90;;;;;;5066802;28;20132;-77
2022/11/19 11:28:11;;;;;;;4.07;3.22;;;8.60;99.90;;;;;;5070165;28;20051;-76
2022/11/19 11:30:49;;;;;;;4.30;3.30;;;8.70;99.90;;;;;;5060080;28;20397;-76
2022/11/19 11:33:26;;;;;;;5.22;4.10;;;8.80;99.90;;;;;;5073456;28;20058;-78
2022/11/19 11:35:55;;;;;;;4.00;3.22;;;9.00;99.90;;;;;;5064205;28;20052;-77
2022/11/19 11:38:24;;;;;;;6.93;4.43;;;9.20;99.90;;;;;;5067864;28;20020;-77
2022/11/19 11:41:05;;;;;;;4.03;3.10;;;9.30;99.90;;;;;;5067673;28;20441;-78
2022/11/19 11:43:32;;;;;;;5.75;3.92;;;9.30;99.90;;;;;;5063564;28;20017;-77
2022/11/19 11:46:01;;;;;;;5.43;3.33;;;9.30;99.90;;;;;;5068956;28;20066;-75
2022/11/19 11:48:45;;;;;;;10.93;5.72;;;9.20;99.90;;;;;;5075222;28;20017;-77
2022/11/19 11:51:40;;;;;;;5.60;3.95;;;9.00;99.90;;;;;;5070040;28;20378;-76
2022/11/19 11:54:18;;;;;;;4.43;2.88;;;8.80;99.90;;;;;;5076109;28;20024;-77
2022/11/19 11:56:44;;;;;;;6.03;4.35;;;8.70;99.90;;;;;;5068512;28;20092;-76
2022/11/19 11:59:24;;;;;;;10.77;5.88;;;8.70;99.90;;;;;;5064021;28;20109;-77
2022/11/19 12:02:04;;;;;;;6.60;4.35;;;8.60;99.90;;;;;;5068596;28;20485;-77
2022/11/19 12:04:30;;;;;;;8.60;3.97;;;8.70;99.90;;;;;;5062230;28;20028;-78
2022/11/19 12:07:02;;;;;;;4.50;3.70;;;8.70;99.90;;;;;;5066740;28;20089;-78
2022/11/19 12:10:02;;;;;;;8.90;4.30;;;8.90;99.90;;;;;;5071613;28;20493;-78
2022/11/19 12:12:42;;;;;;;3.23;2.30;;;9.10;99.90;;;;;;5068973;28;20032;-79
2022/11/19 12:15:08;;;;;;;14.18;7.07;;;9.10;99.90;;;;;;5063511;28;20420;-77
2022/11/19 12:17:55;;;;;;;38.28;22.38;;;9.20;99.90;;;;;;5070132;28;20044;-78
2022/11/19 12:20:37;;;;;;;36.45;20.83;;;9.20;99.90;;;;;;5070747;28;20039;-79
2022/11/19 12:23:11;;;;;;;31.15;16.05;;;9.20;99.90;;;;;;5083205;28;20080;-78
2022/11/19 12:25:44;;;;;;;18.42;10.20;;;9.20;99.90;;;;;;5067654;28;20080;-78
2022/11/19 12:28:25;;;;;;;8.57;5.57;;;9.20;99.90;;;;;;5071168;28;20021;-78
2022/11/19 12:31:12;;;;;;;29.85;14.57;;;9.10;99.90;;;;;;5067891;28;20029;-78
2022/11/19 12:34:06;;;;;;;5.63;3.50;;;9.10;99.90;;;;;;5087268;28;20504;-78
2022/11/19 12:36:38;;;;;;;3.97;3.55;;;9.10;99.90;;;;;;5065955;28;20025;-78
2022/11/19 12:39:33;;;;;;;5.63;3.58;;;9.20;99.90;;;;;;5076223;28;20096;-79
2022/11/19 12:42:20;;;;;;;4.78;4.05;;;9.40;99.90;;;;;;5075350;28;20033;-79
2022/11/19 12:45:02;;;;;;;7.22;3.50;;;9.40;99.90;;;;;;5063141;28;20469;-80
2022/11/19 12:47:38;;;;;;;5.40;3.72;;;9.50;99.90;;;;;;5071525;28;20028;-79
2022/11/19 12:50:13;;;;;;;5.47;3.33;;;9.50;99.90;;;;;;5069238;28;20053;-79
2022/11/19 12:52:55;;;;;;;5.47;3.40;;;9.40;99.90;;;;;;5069672;28;20024;-79
2022/11/19 12:55:45;;;;;;;3.70;3.17;;;9.40;99.90;;;;;;5090776;28;20017;-83
2022/11/19 12:58:13;;;;;;;3.22;2.92;;;9.40;99.90;;;;;;5066474;28;20032;-78
2022/11/19 13:00:57;;;;;;;4.65;3.47;;;9.30;99.90;;;;;;5070851;28;20362;-78
2022/11/19 13:03:48;;;;;;;6.43;3.80;;;9.30;99.90;;;;;;5067378;28;20027;-79
2022/11/19 13:06:26;;;;;;;7.55;3.42;;;9.30;99.90;;;;;;5073692;28;20123;-78
2022/11/19 13:09:07;;;;;;;4.07;3.47;;;9.40;99.90;;;;;;5071495;28;20055;-78
2022/11/19 13:11:42;;;;;;;3.53;3.03;;;9.50;99.90;;;;;;5075016;28;20025;-80
2022/11/19 13:14:29;;;;;;;4.60;3.25;;;9.60;99.90;;;;;;5074367;28;20032;-78
2022/11/19 13:16:55;;;;;;;6.72;3.90;;;9.80;99.90;;;;;;5065791;28;20043;-78
2022/11/19 13:19:34;;;;;;;5.03;3.15;;;10.00;99.90;;;;;;5073581;28;20119;-79
2022/11/19 13:22:11;;;;;;;4.60;3.25;;;10.20;99.90;;;;;;5073848;28;20017;-81
2022/11/19 13:24:42;;;;;;;3.88;3.20;;;10.30;99.90;;;;;;5069620;28;20408;-79
2022/11/19 13:27:19;;;;;;;26.35;18.90;;;10.20;99.90;;;;;;5065666;28;20032;-78
2022/11/19 13:29:51;;;;;;;15.55;6.88;;;10.20;99.90;;;;;;5067840;28;20088;-78
2022/11/19 13:32:33;;;;;;;9.93;4.95;;;10.10;99.90;;;;;;5064370;28;20047;-80
2022/11/19 13:35:21;;;;;;;7.75;4.53;;;10.00;99.90;;;;;;5068836;28;20021;-78